createdAt,value
2022-11-04T00:02:44.246Z,6.90
2022-11-04T00:06:08.148Z,4.90
2022-11-04T00:09:35.810Z,4.75
2022-11-04T00:12:54.733Z,7.32
2022-11-04T00:16:31.176Z,5.55
2022-11-04T00:20:13.139Z,4.45
2022-11-04T00:23:56.167Z,6.88
2022-11-04T00:27:38.146Z,5.57
2022-11-04T00:31:02.193Z,6.70
2022-11-04T00:34:25.182Z,3.72
2022-11-04T00:37:52.250Z,7.03
2022-11-04T00:41:34.174Z,5.60
2022-11-04T00:44:58.235Z,5.45
2022-11-04T00:48:22.166Z,4.40
2022-11-04T00:51:46.268Z,8.18
2022-11-04T00:55:10.189Z,4.03
2022-11-04T00:58:34.230Z,4.78
2022-11-04T01:01:58.394Z,4.03
2022-11-04T01:05:22.297Z,3.92
2022-11-04T01:08:46.264Z,6.07
2022-11-04T01:12:10.296Z,4.38
2022-11-04T01:15:35.344Z,6.18
2022-11-04T01:18:59.351Z,5.68
2022-11-04T01:22:23.332Z,4.32
2022-11-04T01:25:47.280Z,4.78
2022-11-04T01:29:12.355Z,5.13
2022-11-04T01:32:35.321Z,5.80
2022-11-04T01:35:59.335Z,4.72
2022-11-04T01:39:23.311Z,5.68
2022-11-04T01:42:47.341Z,3.22
2022-11-04T01:46:13.327Z,5.80
2022-11-04T01:49:50.372Z,6.88
2022-11-04T01:53:34.353Z,5.53
2022-11-04T01:56:59.339Z,6.35
2022-11-04T02:00:25.347Z,4.28
2022-11-04T02:03:49.298Z,5.53
2022-11-04T02:07:18.337Z,4.35
2022-11-04T02:10:43.340Z,5.93
2022-11-04T02:14:09.384Z,4.78
2022-11-04T02:17:52.339Z,5.72
2022-11-04T02:25:19.359Z,4.00
2022-11-04T02:28:46.303Z,3.65
2022-11-04T02:32:33.326Z,5.25
2022-11-04T02:36:33.588Z,5.43
2022-11-04T02:40:20.315Z,3.50
2022-11-04T02:44:16.339Z,3.30
2022-11-04T02:47:43.338Z,5.15
2022-11-04T02:51:18.314Z,5.28
2022-11-04T02:54:51.398Z,6.35
2022-11-04T02:58:16.329Z,4.93
2022-11-04T03:01:43.236Z,5.10
2022-11-04T03:05:01.345Z,4.18
2022-11-04T03:08:31.360Z,3.72
2022-11-04T03:11:57.321Z,4.85
2022-11-04T03:15:24.367Z,4.03
2022-11-04T03:18:49.310Z,2.83
2022-11-04T03:22:32.374Z,5.88
2022-11-04T03:26:04.290Z,3.78
2022-11-04T03:29:40.641Z,5.13
2022-11-04T03:33:17.345Z,4.30
2022-11-04T03:36:41.342Z,3.20
2022-11-04T03:40:05.263Z,4.20
2022-11-04T03:43:38.703Z,3.75
2022-11-04T03:47:04.312Z,4.25
2022-11-04T03:50:36.295Z,2.75
2022-11-04T03:54:00.297Z,3.97
2022-11-04T03:57:36.651Z,6.03
2022-11-04T04:01:07.329Z,4.40
2022-11-04T04:05:00.271Z,7.35
2022-11-04T04:08:51.322Z,3.90
2022-11-04T04:12:40.265Z,4.25
2022-11-04T04:16:08.311Z,4.88
2022-11-04T04:19:35.286Z,3.47
2022-11-04T04:23:37.311Z,4.55
2022-11-04T04:27:18.286Z,4.30
2022-11-04T04:30:42.288Z,6.22
2022-11-04T04:34:05.318Z,4.70
2022-11-04T04:37:37.271Z,6.43
2022-11-04T04:41:46.317Z,5.30
2022-11-04T04:45:14.311Z,4.57
2022-11-04T04:48:38.291Z,7.00
2022-11-04T04:52:03.339Z,5.22
2022-11-04T04:55:28.302Z,6.57
2022-11-04T04:58:52.358Z,4.93
2022-11-04T05:02:18.974Z,6.88
2022-11-04T05:05:43.317Z,9.25
2022-11-04T05:09:08.321Z,5.43
2022-11-04T05:12:32.313Z,4.07
2022-11-04T05:15:56.310Z,7.32
2022-11-04T05:19:20.314Z,4.75
2022-11-04T05:22:44.318Z,5.10
2022-11-04T05:26:08.309Z,6.05
2022-11-04T05:29:33.317Z,6.45
2022-11-04T05:33:00.043Z,6.82
2022-11-04T05:36:30.343Z,5.00
2022-11-04T05:39:53.319Z,6.38
2022-11-04T05:43:18.392Z,4.10
2022-11-04T05:46:43.325Z,4.28
2022-11-04T05:50:08.320Z,4.75
2022-11-04T05:53:31.306Z,6.82
2022-11-04T05:56:55.349Z,5.90
2022-11-04T06:00:19.327Z,6.32
2022-11-04T06:03:43.400Z,6.90
2022-11-04T06:07:07.371Z,6.25
2022-11-04T06:10:33.398Z,5.45
2022-11-04T06:13:57.381Z,6.07
2022-11-04T06:17:21.346Z,6.72
2022-11-04T06:20:45.351Z,5.85
2022-11-04T06:24:10.364Z,6.35
2022-11-04T06:27:34.387Z,6.35
2022-11-04T06:30:59.361Z,6.05
2022-11-04T06:34:24.355Z,6.20
2022-11-04T06:37:48.334Z,5.68
2022-11-04T06:41:13.352Z,7.22
2022-11-04T06:44:36.333Z,6.68
2022-11-04T06:48:00.346Z,8.27
2022-11-04T06:51:24.542Z,8.35
2022-11-04T06:54:48.316Z,7.57
2022-11-04T06:58:13.380Z,6.63
2022-11-04T07:01:39.493Z,4.78
2022-11-04T07:05:02.359Z,11.57
2022-11-04T07:08:26.357Z,7.93
2022-11-04T07:11:50.403Z,5.90
2022-11-04T07:15:08.374Z,9.90
2022-11-04T07:18:33.416Z,8.00
2022-11-04T07:21:50.983Z,7.32
2022-11-04T07:25:08.381Z,8.55
2022-11-04T07:28:33.409Z,7.68
2022-11-04T07:31:59.363Z,6.15
2022-11-04T07:35:23.401Z,9.68
2022-11-04T07:38:47.367Z,6.53
2022-11-04T07:42:11.402Z,6.28
2022-11-04T07:45:43.378Z,8.30
2022-11-04T07:49:06.439Z,9.20
2022-11-04T07:52:30.398Z,6.85
2022-11-04T07:55:57.400Z,6.32
2022-11-04T07:59:21.484Z,4.97
2022-11-04T08:02:45.399Z,11.80
2022-11-04T08:06:14.387Z,9.43
2022-11-04T08:09:37.390Z,11.10
2022-11-04T08:13:00.393Z,8.27
2022-11-04T08:16:34.170Z,6.25
2022-11-04T08:19:59.031Z,8.25
2022-11-04T08:23:24.407Z,11.75
2022-11-04T08:26:48.380Z,6.10
2022-11-04T08:30:12.432Z,8.00
2022-11-04T08:33:39.413Z,9.25
2022-11-04T08:37:05.418Z,9.85
2022-11-04T08:40:29.407Z,9.82
2022-11-04T08:43:53.424Z,9.15
2022-11-04T08:47:18.421Z,9.35
2022-11-04T08:50:42.458Z,9.70
2022-11-04T08:54:05.385Z,8.13
2022-11-04T08:57:29.454Z,7.30
2022-11-04T09:00:54.016Z,7.40
2022-11-04T09:04:18.440Z,10.18
2022-11-04T09:07:43.420Z,9.10
2022-11-04T09:11:07.403Z,7.22
2022-11-04T09:14:31.397Z,9.00
2022-11-04T09:17:56.436Z,11.30
2022-11-04T09:21:14.992Z,8.63
2022-11-04T09:24:32.424Z,9.07
2022-11-04T09:27:57.765Z,6.78
2022-11-04T09:31:27.429Z,8.15
2022-11-04T09:34:50.411Z,7.55
2022-11-04T09:38:15.510Z,12.90
2022-11-04T09:41:52.473Z,8.30
2022-11-04T09:45:22.139Z,11.15
2022-11-04T09:48:54.454Z,6.35
2022-11-04T09:52:31.473Z,6.53
2022-11-04T09:56:15.481Z,9.98
2022-11-04T09:59:44.440Z,7.97
2022-11-04T10:03:17.434Z,8.82
2022-11-04T10:06:57.458Z,7.22
2022-11-04T10:10:39.403Z,7.25
2022-11-04T10:14:34.245Z,6.32
2022-11-04T10:18:46.434Z,9.07
2022-11-04T10:22:24.483Z,8.57
2022-11-04T10:25:53.443Z,7.18
2022-11-04T10:29:20.456Z,8.27
2022-11-04T10:33:08.755Z,7.65
2022-11-04T10:36:33.437Z,6.43
2022-11-04T10:40:00.465Z,6.90
2022-11-04T10:43:27.439Z,6.20
2022-11-04T10:47:24.423Z,5.00
2022-11-04T10:50:54.479Z,7.00
2022-11-04T10:54:23.466Z,8.57
2022-11-04T10:57:46.438Z,7.22
2022-11-04T11:01:14.904Z,8.30
2022-11-04T11:04:48.490Z,5.63
2022-11-04T11:08:12.455Z,7.93
2022-11-04T11:12:29.799Z,7.45
2022-11-04T11:15:52.534Z,8.02
2022-11-04T11:19:29.435Z,6.88
2022-11-04T11:23:04.614Z,8.15
2022-11-04T11:26:35.098Z,6.32
2022-11-04T11:30:04.560Z,8.00
2022-11-04T11:33:36.437Z,7.45
2022-11-04T11:37:00.504Z,9.50
2022-11-04T11:41:03.505Z,11.40
2022-11-04T11:45:18.501Z,7.72
2022-11-04T11:48:58.478Z,7.80
2022-11-04T11:52:46.477Z,7.72
2022-11-04T11:56:21.496Z,8.73
2022-11-04T12:11:54.470Z,10.13
2022-11-04T12:15:40.502Z,9.07
2022-11-04T12:19:28.481Z,8.52
2022-11-04T12:22:59.652Z,7.05
2022-11-04T12:26:23.084Z,8.30
2022-11-04T12:30:24.048Z,11.55
2022-11-04T12:34:02.416Z,11.32
2022-11-04T12:37:40.515Z,7.05
2022-11-04T12:41:52.766Z,7.22
2022-11-04T12:45:22.480Z,7.78
2022-11-04T12:49:31.511Z,6.38
2022-11-04T12:53:09.790Z,5.47
2022-11-04T12:56:35.542Z,10.07
2022-11-04T12:59:59.500Z,9.23
2022-11-04T13:03:29.616Z,8.05
2022-11-04T13:07:08.495Z,8.65
2022-11-04T13:10:40.533Z,5.70
2022-11-04T13:14:06.507Z,7.35
2022-11-04T13:17:39.515Z,7.80
2022-11-04T13:21:11.527Z,6.82
2022-11-04T13:24:46.475Z,11.32
2022-11-04T13:28:12.103Z,8.70
2022-11-04T13:31:43.477Z,6.03
2022-11-04T13:35:31.621Z,8.40
2022-11-04T13:39:00.133Z,7.05
2022-11-04T13:42:52.554Z,7.50
2022-11-04T13:46:16.536Z,7.63
2022-11-04T13:49:44.529Z,8.40
2022-11-04T13:53:07.806Z,8.77
2022-11-04T13:56:45.258Z,7.43
2022-11-04T14:00:35.902Z,9.82
2022-11-04T14:04:28.499Z,9.93
2022-11-04T14:08:16.557Z,8.20
2022-11-04T14:11:40.523Z,5.50
2022-11-04T14:15:23.529Z,8.32
2022-11-04T14:18:49.558Z,7.03
2022-11-04T14:22:21.532Z,10.70
2022-11-04T14:25:53.550Z,7.93
2022-11-04T14:29:41.018Z,10.00
2022-11-04T14:33:11.862Z,8.23
2022-11-04T14:36:37.555Z,10.00
2022-11-04T14:40:01.573Z,6.85
2022-11-04T14:43:43.532Z,6.57
2022-11-04T14:47:09.548Z,6.20
2022-11-04T14:50:36.540Z,7.85
2022-11-04T14:53:59.571Z,7.72
2022-11-04T14:57:34.590Z,8.10
2022-11-04T15:01:05.495Z,8.13
2022-11-04T15:04:35.221Z,7.05
2022-11-04T15:08:00.558Z,7.53
2022-11-04T15:11:49.577Z,8.10
2022-11-04T15:15:14.585Z,9.50
2022-11-04T15:18:40.538Z,7.07
2022-11-04T15:22:05.577Z,6.63
2022-11-04T15:25:29.542Z,7.88
2022-11-04T15:29:00.561Z,8.38
2022-11-04T15:32:26.137Z,10.00
2022-11-04T15:35:51.593Z,5.47
2022-11-04T15:39:26.564Z,7.57
2022-11-04T15:42:54.606Z,10.27
2022-11-04T15:46:18.593Z,9.90
2022-11-04T15:49:44.611Z,8.88
2022-11-04T15:53:12.478Z,6.97
2022-11-04T15:57:03.609Z,7.72
2022-11-04T16:00:30.573Z,10.68
2022-11-04T16:03:54.610Z,6.90
2022-11-04T16:07:37.577Z,11.43
2022-11-04T16:14:38.601Z,8.93
2022-11-04T16:18:01.574Z,5.25
2022-11-04T16:21:34.596Z,8.48
2022-11-04T16:24:57.592Z,7.47
2022-11-04T16:28:21.553Z,9.15
2022-11-04T16:31:49.594Z,8.55
2022-11-04T16:35:14.227Z,4.80
2022-11-04T16:38:32.608Z,7.10
2022-11-04T16:41:57.619Z,6.93
2022-11-04T16:45:22.587Z,7.90
2022-11-04T16:48:46.621Z,8.50
2022-11-04T16:52:16.566Z,7.93
2022-11-04T16:55:40.638Z,7.95
2022-11-04T16:59:04.585Z,5.70
2022-11-04T17:02:48.644Z,8.15
2022-11-04T17:06:12.568Z,5.00
2022-11-04T17:09:37.612Z,7.15
2022-11-04T17:12:56.747Z,8.75
2022-11-04T17:16:21.598Z,4.75
2022-11-04T17:19:45.724Z,6.35
2022-11-04T17:23:10.894Z,6.05
2022-11-04T17:26:36.600Z,4.20
2022-11-04T17:30:00.586Z,5.25
2022-11-04T17:33:31.972Z,7.13
2022-11-04T17:36:55.628Z,7.05
2022-11-04T17:40:20.599Z,6.20
2022-11-04T17:44:03.687Z,5.05
2022-11-04T17:47:27.643Z,6.80
2022-11-04T17:50:55.614Z,7.47
2022-11-04T17:54:20.529Z,8.43
2022-11-04T17:57:44.623Z,7.00
2022-11-04T18:01:07.698Z,7.45
2022-11-04T18:04:34.643Z,7.15
2022-11-04T18:07:58.814Z,7.15
2022-11-04T18:11:43.636Z,7.70
2022-11-04T18:15:07.657Z,6.30
2022-11-04T18:18:31.643Z,8.02
2022-11-04T18:25:26.628Z,7.90
2022-11-04T18:28:49.633Z,10.05
2022-11-04T18:32:14.651Z,11.10
2022-11-04T18:35:38.623Z,13.07
2022-11-04T18:39:04.036Z,10.68
2022-11-04T18:42:28.032Z,13.77
2022-11-04T18:45:51.655Z,10.10
2022-11-04T18:49:15.657Z,8.73
2022-11-04T18:52:39.696Z,8.35
2022-11-04T18:56:03.636Z,7.68
2022-11-04T18:59:29.671Z,11.02
2022-11-04T19:02:53.615Z,8.35
2022-11-04T19:06:21.764Z,9.50
2022-11-04T19:09:47.065Z,10.77
2022-11-04T19:13:28.755Z,8.60
2022-11-04T19:16:52.641Z,11.25
2022-11-04T19:20:17.664Z,11.32
2022-11-04T19:23:41.642Z,12.30
2022-11-04T19:27:05.307Z,13.77
2022-11-04T19:30:31.287Z,8.77
2022-11-04T19:33:55.683Z,10.35
2022-11-04T19:37:13.271Z,10.88
2022-11-04T19:40:30.667Z,7.88
2022-11-04T19:43:53.640Z,9.57
2022-11-04T19:47:17.689Z,10.52
2022-11-04T19:50:43.291Z,12.57
2022-11-04T19:54:07.705Z,9.40
2022-11-04T19:57:30.671Z,14.45
2022-11-04T20:00:55.760Z,9.73
2022-11-04T20:04:20.688Z,12.93
2022-11-04T20:07:47.325Z,9.00
2022-11-04T20:11:11.694Z,9.93
2022-11-04T20:14:37.207Z,13.82
2022-11-04T20:18:01.682Z,11.95
2022-11-04T20:21:26.795Z,13.00
2022-11-04T20:24:49.669Z,11.68
2022-11-04T20:28:15.706Z,11.10
2022-11-04T20:31:40.684Z,10.63
2022-11-04T20:35:04.692Z,10.25
2022-11-04T20:38:28.696Z,10.40
2022-11-04T20:41:52.687Z,7.35
2022-11-04T20:45:16.681Z,7.50
2022-11-04T20:48:41.704Z,11.48
2022-11-04T20:52:04.714Z,7.22
2022-11-04T20:55:28.694Z,8.23
2022-11-04T20:58:58.786Z,11.38
2022-11-04T21:02:25.858Z,11.18
2022-11-04T21:05:50.776Z,8.80
2022-11-04T21:09:14.721Z,10.48
2022-11-04T21:12:38.703Z,14.38
2022-11-04T21:16:07.065Z,9.02
2022-11-04T21:19:30.705Z,10.27
2022-11-04T21:22:54.720Z,8.93
2022-11-04T21:26:38.699Z,9.85
2022-11-04T21:30:02.741Z,6.53
2022-11-04T21:33:26.687Z,9.15
2022-11-04T21:36:50.742Z,10.00
2022-11-04T21:40:14.731Z,7.53
2022-11-04T21:43:38.383Z,7.68
2022-11-04T21:47:05.732Z,7.05
2022-11-04T21:50:28.784Z,7.47
2022-11-04T21:53:52.752Z,7.82
2022-11-04T21:57:16.703Z,6.78
2022-11-04T22:00:40.766Z,8.55
2022-11-04T22:04:07.709Z,11.77
2022-11-04T22:07:51.753Z,7.35
2022-11-04T22:11:26.841Z,8.80
2022-11-04T22:14:50.756Z,8.23
2022-11-04T22:18:14.741Z,9.40
2022-11-04T22:21:39.717Z,8.65
2022-11-04T22:25:12.732Z,9.20
2022-11-04T22:28:36.734Z,8.48
2022-11-04T22:32:00.762Z,11.80
2022-11-04T22:35:24.772Z,7.53
2022-11-04T22:38:43.372Z,7.07
2022-11-04T22:42:01.753Z,8.88
2022-11-04T22:45:25.721Z,8.50
2022-11-04T22:48:50.762Z,12.20
2022-11-04T22:52:14.718Z,9.30
2022-11-04T22:55:39.726Z,12.05
2022-11-04T22:59:03.721Z,12.57
2022-11-04T23:02:29.021Z,10.85
2022-11-04T23:05:54.804Z,8.05
2022-11-04T23:09:20.789Z,9.88
2022-11-04T23:13:02.801Z,8.93
2022-11-04T23:16:45.729Z,11.10
2022-11-04T23:20:10.791Z,14.90
2022-11-04T23:23:52.790Z,11.68
2022-11-04T23:27:15.768Z,12.35
2022-11-04T23:30:40.820Z,7.53
2022-11-04T23:34:21.764Z,9.48
2022-11-04T23:37:38.781Z,9.43
2022-11-04T23:41:20.875Z,8.80
2022-11-04T23:48:45.788Z,7.68
2022-11-04T23:52:28.786Z,8.70
2022-11-04T23:56:10.886Z,10.05
2022-11-04T23:59:52.755Z,8.40
